Yankee Freedom — WDH9223 — position and weather

sailwx.info

Track history (hours):
 
Tides and Currents Weather Stations Pressure Air Temp Water Temp Dewpoint Dewpoint Depression Visibility Wind Speed Wind Dir Waves Ship Positions

Yankee Freedom

Owner: Yankee Freedom Inc, Gloucester, MA. More information available from US FCC via Universal Licensing System and Coast Guard Vessel Documentation Center.

Last reported at 2018-Jun-24 20:30 UTC. Time now 2018-Jun-24 20:32 UTC.
Position N 42°35' W 070°27'.

Type: Ship. MMSI: 367665870.

Date/timePositionNaut miles runAvg speedWind from/ knotsBaromVisibWave heightAir tempDewpointWater temp
2018-Jun-24 20:30N 42°35' W 070°27'0 0.0
2018-Jun-24 20:00N 42°35' W 070°27'0 0.2
2018-Jun-24 19:29N 42°35' W 070°27'0 0.0
2018-Jun-24 19:00N 42°35' W 070°27'2 4.1
2018-Jun-24 18:30N 42°35' W 070°30'612.4
2018-Jun-24 18:00N 42°34' W 070°38'3 5.8
2018-Jun-24 17:30N 42°37' W 070°39'0 0.0
2018-Jun-24 17:00N 42°37' W 070°39'0 0.4
2018-Jun-24 16:30N 42°37' W 070°39'3 5.4
2018-Jun-24 16:00N 42°34' W 070°38'612.1
2018-Jun-24 15:30N 42°34' W 070°30'4 8.7
2018-Jun-24 15:00N 42°33' W 070°24'0 0.5
2018-Jun-24 14:30N 42°33' W 070°25'0 0.4
2018-Jun-24 14:00N 42°33' W 070°25'0 0.2
2018-Jun-24 13:30N 42°33' W 070°25'4 7.9
2018-Jun-24 12:58N 42°34' W 070°30'612.3
2018-Jun-24 12:30N 42°34' W 070°38'3 5.4
2018-Jun-24 12:00N 42°37' W 070°39'0 0.8
2018-Jun-24 11:30N 42°37' W 070°39'0 0.6
2018-Jun-24 11:00N 42°37' W 070°40'0 0.0
2018-Jun-24 10:30N 42°37' W 070°40'0 0.0
2018-Jun-24 10:00N 42°37' W 070°40'0 0.0
2018-Jun-24 09:30N 42°37' W 070°40'0 0.0
2018-Jun-24 09:00N 42°37' W 070°40'0 0.0
2018-Jun-24 08:30N 42°37' W 070°40'0 0.0
2018-Jun-24 08:00N 42°37' W 070°40'0 0.0
2018-Jun-24 07:30N 42°37' W 070°40'0 0.0
2018-Jun-24 07:01N 42°37' W 070°40'0 0.0
2018-Jun-24 06:30N 42°37' W 070°40'0 0.0
2018-Jun-24 06:00N 42°37' W 070°40'0 0.0
2018-Jun-24 05:30N 42°37' W 070°40'0 0.0
2018-Jun-24 05:01N 42°37' W 070°40'0 0.0
2018-Jun-24 04:30N 42°37' W 070°40'0 0.0
2018-Jun-24 04:00N 42°37' W 070°40'0 0.0
2018-Jun-24 03:30N 42°37' W 070°40'0 0.0
2018-Jun-24 03:00N 42°37' W 070°40'0 0.0
2018-Jun-24 02:30N 42°37' W 070°40'0 0.0
2018-Jun-24 02:00N 42°37' W 070°40'0 0.0
2018-Jun-24 01:30N 42°37' W 070°40'0 0.0
2018-Jun-24 01:00N 42°37' W 070°40'0 0.0
2018-Jun-24 00:30N 42°37' W 070°40'0 0.0
2018-Jun-24 00:00N 42°37' W 070°40'0 0.0
2018-Jun-23 23:31N 42°37' W 070°40'0 0.0
2018-Jun-23 23:00N 42°37' W 070°40'1 1.3
2018-Jun-23 22:30N 42°37' W 070°39'0 0.0
2018-Jun-23 22:00N 42°37' W 070°39'2 4.8
2018-Jun-23 21:30N 42°35' W 070°40'612.6
2018-Jun-23 21:00N 42°33' W 070°32'510.6
2018-Jun-23 20:30N 42°33' W 070°25'0 0.0
2018-Jun-23 20:00N 42°33' W 070°25'0 0.0
2018-Jun-23 19:30N 42°33' W 070°25'0 0.0
2018-Jun-23 18:59N 42°33' W 070°25'3 6.5
2018-Jun-23 18:30N 42°33' W 070°29'612.1
2018-Jun-23 18:00N 42°34' W 070°37'3 6.6
2018-Jun-23 17:30N 42°37' W 070°39'0 0.0
2018-Jun-23 17:00N 42°37' W 070°39'0 0.0
2018-Jun-23 16:30N 42°37' W 070°39'3 6.0
2018-Jun-23 16:00N 42°34' W 070°38'612.1
2018-Jun-23 15:30N 42°34' W 070°30'4 7.4
2018-Jun-23 15:00N 42°33' W 070°25'0 0.0
2018-Jun-23 14:30N 42°33' W 070°25'0 0.0
2018-Jun-23 14:00N 42°33' W 070°25'0 0.0
2018-Jun-23 13:30N 42°33' W 070°25'4 7.6
2018-Jun-23 13:00N 42°33' W 070°30'612.0
2018-Jun-23 12:30N 42°34' W 070°38'3 6.0
2018-Jun-23 12:00N 42°37' W 070°39'0 0.6
2018-Jun-23 11:30N 42°37' W 070°39'0 0.1
2018-Jun-23 03:47N 42°37' W 070°40'0 0.1
2018-Jun-23 03:31N 42°37' W 070°40'0 0.0
2018-Jun-23 03:00N 42°37' W 070°40'0 0.0
2018-Jun-23 02:31N 42°37' W 070°40'0 0.0
2018-Jun-23 02:00N 42°37' W 070°40'0 0.0
2018-Jun-23 01:30N 42°37' W 070°40'0 0.0
2018-Jun-23 01:01N 42°37' W 070°40'0 0.0
2018-Jun-23 00:30N 42°37' W 070°40'0 0.0
2018-Jun-23 00:00N 42°37' W 070°40'0 0.0
2018-Jun-22 23:29N 42°37' W 070°40'0 0.0
2018-Jun-22 23:00N 42°37' W 070°40'0 0.0
2018-Jun-22 22:30N 42°37' W 070°40'0 0.0
2018-Jun-22 22:00N 42°37' W 070°40'0 0.0
2018-Jun-22 21:30N 42°37' W 070°40'0 0.0
2018-Jun-22 21:00N 42°37' W 070°40'0 0.0
2018-Jun-22 20:30N 42°37' W 070°40'0 0.0
2018-Jun-22 20:00N 42°37' W 070°40'0 0.0
2018-Jun-22 19:30N 42°37' W 070°40'0 0.0
2018-Jun-22 19:00N 42°37' W 070°40'0 0.0
2018-Jun-22 18:31N 42°37' W 070°40'0 0.0
2018-Jun-22 18:00N 42°37' W 070°40'1 1.2
2018-Jun-22 17:30N 42°37' W 070°39'0 0.0
2018-Jun-22 17:01N 42°37' W 070°39'0 0.2
2018-Jun-22 16:31N 42°37' W 070°39'3 5.0
2018-Jun-22 16:00N 42°35' W 070°40'611.6
2018-Jun-22 15:30N 42°34' W 070°32'0 0.9
2018-Jun-22 15:01N 42°34' W 070°31'0 0.0
2018-Jun-22 14:30N 42°34' W 070°31'1 1.7
2018-Jun-22 14:00N 42°34' W 070°32'0 0.5
2018-Jun-22 13:30N 42°34' W 070°32'0 0.7
2018-Jun-22 12:59N 42°34' W 070°32'4 8.0
2018-Jun-22 12:30N 42°34' W 070°38'3 5.7
2018-Jun-22 12:00N 42°37' W 070°39'0 0.1
2018-Jun-22 11:30N 42°37' W 070°39'1 1.3
2018-Jun-22 10:59N 42°37' W 070°40'0 0.0
2018-Jun-22 10:30N 42°37' W 070°40'0 0.0
2018-Jun-22 10:00N 42°37' W 070°40'0 0.0
2018-Jun-22 09:31N 42°37' W 070°40'0 0.0
2018-Jun-22 09:00N 42°37' W 070°40'0 0.0
2018-Jun-22 08:31N 42°37' W 070°40'0 0.0
2018-Jun-22 08:00N 42°37' W 070°40'0 0.0
2018-Jun-22 07:31N 42°37' W 070°40'0 0.0
2018-Jun-22 07:00N 42°37' W 070°40'0 0.0
2018-Jun-22 06:30N 42°37' W 070°40'0 0.0
2018-Jun-22 06:00N 42°37' W 070°40'0 0.0
2018-Jun-22 05:31N 42°37' W 070°40'0 0.0
2018-Jun-22 05:01N 42°37' W 070°40'0 0.0
2018-Jun-22 04:30N 42°37' W 070°40'0 0.0
2018-Jun-22 04:00N 42°37' W 070°40'0 0.0
2018-Jun-22 03:30N 42°37' W 070°40'0 0.0
2018-Jun-22 03:00N 42°37' W 070°40'0 0.0
2018-Jun-22 02:30N 42°37' W 070°40'0 0.0
2018-Jun-22 02:00N 42°37' W 070°40'0 0.0
2018-Jun-22 01:31N 42°37' W 070°40'0 0.0
2018-Jun-22 01:00N 42°37' W 070°40'0 0.0
2018-Jun-22 00:30N 42°37' W 070°40'0 0.0
2018-Jun-22 00:00N 42°37' W 070°40'0 0.0
2018-Jun-21 23:30N 42°37' W 070°40'0 0.0
2018-Jun-21 23:00N 42°37' W 070°40'0 0.0
2018-Jun-21 22:30N 42°37' W 070°40'0 0.0
2018-Jun-21 22:00N 42°37' W 070°40'0 0.0
2018-Jun-21 21:30N 42°37' W 070°40'0 0.0
2018-Jun-21 21:00N 42°37' W 070°40'0 0.0
2018-Jun-21 20:31N 42°37' W 070°40'0 0.0
2018-Jun-21 20:00N 42°37' W 070°40'0 0.0
2018-Jun-21 19:30N 42°37' W 070°40'0 0.0
2018-Jun-21 19:00N 42°37' W 070°40'0 0.0
2018-Jun-21 18:30N 42°37' W 070°40'0 0.0
2018-Jun-21 18:00N 42°37' W 070°40'0 0.0
2018-Jun-21 17:30N 42°37' W 070°40'0 0.0
2018-Jun-21 17:00N 42°37' W 070°40'1 1.3
2018-Jun-21 16:30N 42°37' W 070°39'2 4.3
2018-Jun-21 16:00N 42°35' W 070°41'611.4
2018-Jun-21 15:30N 42°35' W 070°33'1 2.6
2018-Jun-21 15:00N 42°36' W 070°31'1 1.7
2018-Jun-21 14:30N 42°35' W 070°30'2 4.4
2018-Jun-21 14:00N 42°35' W 070°27'1 1.2
2018-Jun-21 13:30N 42°36' W 070°27'2 4.9
2018-Jun-21 13:00N 42°35' W 070°31'611.7
2018-Jun-21 12:30N 42°34' W 070°39'2 5.0
2018-Jun-21 12:00N 42°37' W 070°39'0 0.0
2018-Jun-21 11:30N 42°37' W 070°39'1 1.3
2018-Jun-21 11:00N 42°37' W 070°40'0 0.0
2018-Jun-21 10:30N 42°37' W 070°40'0 0.0
2018-Jun-21 10:00N 42°37' W 070°40'0 0.0
2018-Jun-21 09:30N 42°37' W 070°40'0 0.0
2018-Jun-21 09:00N 42°37' W 070°40'0 0.0
2018-Jun-21 08:30N 42°37' W 070°40'0 0.0
2018-Jun-21 08:00N 42°37' W 070°40'0 0.0
2018-Jun-21 07:30N 42°37' W 070°40'0 0.0
2018-Jun-21 07:00N 42°37' W 070°40'0 0.0
2018-Jun-21 06:30N 42°37' W 070°40'0 0.0
2018-Jun-21 06:00N 42°37' W 070°40'0 0.0
2018-Jun-21 05:30N 42°37' W 070°40'0 0.0
2018-Jun-21 05:00N 42°37' W 070°40'0 0.0
2018-Jun-21 04:30N 42°37' W 070°40'0 0.0
2018-Jun-21 03:59N 42°37' W 070°40'0 0.0
2018-Jun-21 03:30N 42°37' W 070°40'0 0.0
2018-Jun-21 03:00N 42°37' W 070°40'0 0.0
2018-Jun-21 02:30N 42°37' W 070°40'0 0.0
2018-Jun-21 02:00N 42°37' W 070°40'0 0.0
2018-Jun-21 01:30N 42°37' W 070°40'0 0.0
2018-Jun-21 01:00N 42°37' W 070°40'0 0.0
2018-Jun-21 00:30N 42°37' W 070°40'0 0.0
2018-Jun-21 00:00N 42°37' W 070°40'0 0.0
2018-Jun-20 23:30N 42°37' W 070°40'0 0.0
2018-Jun-20 23:00N 42°37' W 070°40'0 0.0
2018-Jun-20 22:30N 42°37' W 070°40'0 0.0
2018-Jun-20 22:00N 42°37' W 070°40'0 0.0
2018-Jun-20 21:30N 42°37' W 070°40'0 0.0
2018-Jun-20 21:00N 42°37' W 070°40'0 0.0
2018-Jun-20 20:30N 42°37' W 070°40'0 0.0
2018-Jun-20 20:00N 42°37' W 070°40'0 0.0
2018-Jun-20 19:30N 42°37' W 070°40'0 0.0
2018-Jun-20 19:00N 42°37' W 070°40'0 0.0
2018-Jun-20 18:30N 42°37' W 070°40'0 0.0
2018-Jun-20 18:00N 42°37' W 070°40'0 0.0
2018-Jun-20 17:30N 42°37' W 070°40'0 0.0
2018-Jun-20 17:00N 42°37' W 070°40'0 0.0
2018-Jun-20 16:31N 42°37' W 070°40'0 0.0
2018-Jun-20 16:00N 42°37' W 070°40'0 0.0
2018-Jun-20 15:30N 42°37' W 070°40'0 0.0
2018-Jun-20 15:00N 42°37' W 070°40'0 0.0
2018-Jun-20 14:30N 42°37' W 070°40'0 0.0
2018-Jun-20 14:00N 42°37' W 070°40'0 0.0
2018-Jun-20 13:30N 42°37' W 070°40'0 0.0
2018-Jun-20 13:00N 42°37' W 070°40'0 0.0
2018-Jun-20 12:30N 42°37' W 070°40'0 0.0
2018-Jun-20 12:00N 42°37' W 070°40'0 0.0
2018-Jun-20 11:30N 42°37' W 070°40'0 0.0
2018-Jun-20 11:00N 42°37' W 070°40'0 0.0
2018-Jun-20 10:30N 42°37' W 070°40'0 0.0
2018-Jun-20 10:00N 42°37' W 070°40'0 0.0
2018-Jun-20 09:30N 42°37' W 070°40'0 0.0
2018-Jun-20 09:00N 42°37' W 070°40'0 0.0
2018-Jun-20 08:31N 42°37' W 070°40'0 0.0
2018-Jun-20 08:00N 42°37' W 070°40'0 0.0
2018-Jun-20 07:30N 42°37' W 070°40'0 0.0
2018-Jun-20 07:00N 42°37' W 070°40'0 0.0
2018-Jun-20 06:30N 42°37' W 070°40'0 0.0
2018-Jun-20 06:01N 42°37' W 070°40'0 0.0
2018-Jun-20 05:30N 42°37' W 070°40'0 0.0
2018-Jun-20 05:00N 42°37' W 070°40'0 0.0
2018-Jun-20 04:30N 42°37' W 070°40'0 0.0
2018-Jun-20 04:00N 42°37' W 070°40'0 0.0
2018-Jun-20 03:30N 42°37' W 070°40'0 0.0
2018-Jun-20 03:00N 42°37' W 070°40'0 0.0
2018-Jun-20 02:30N 42°37' W 070°40'0 0.0
2018-Jun-20 02:00N 42°37' W 070°40'0 0.0
2018-Jun-20 01:30N 42°37' W 070°40'0 0.0
2018-Jun-20 01:00N 42°37' W 070°40'0 0.0
2018-Jun-20 00:30N 42°37' W 070°40'0 0.0
2018-Jun-20 00:00N 42°37' W 070°40'0 0.0
2018-Jun-19 23:30N 42°37' W 070°40'0 0.0
2018-Jun-19 23:00N 42°37' W 070°40'0 0.0
2018-Jun-19 22:30N 42°37' W 070°40'0 0.0
2018-Jun-19 22:00N 42°37' W 070°40'0 0.0
2018-Jun-19 21:30N 42°37' W 070°40'0 0.0
2018-Jun-19 21:00N 42°37' W 070°40'0 0.0
2018-Jun-19 20:30N 42°37' W 070°40'0 0.0
2018-Jun-19 20:00N 42°37' W 070°40'0 0.0
2018-Jun-19 19:30N 42°37' W 070°40'0 0.0
2018-Jun-19 19:00N 42°37' W 070°40'0 0.0
2018-Jun-19 18:30N 42°37' W 070°40'0 0.0
2018-Jun-19 18:00N 42°37' W 070°40'0 0.0
2018-Jun-19 17:30N 42°37' W 070°40'0 0.0
2018-Jun-19 17:00N 42°37' W 070°40'0 0.0
2018-Jun-19 16:29N 42°37' W 070°40'0 0.0
2018-Jun-19 16:00N 42°37' W 070°40'0 0.0
2018-Jun-19 15:30N 42°37' W 070°40'0 0.0
2018-Jun-19 15:00N 42°37' W 070°40'0 0.0
2018-Jun-19 14:30N 42°37' W 070°40'0 0.0
2018-Jun-19 14:00N 42°37' W 070°40'0 0.0
2018-Jun-19 13:30N 42°37' W 070°40'0 0.0
2018-Jun-19 13:00N 42°37' W 070°40'0 0.0
2018-Jun-19 12:30N 42°37' W 070°40'0 0.0
2018-Jun-19 12:00N 42°37' W 070°40'0 0.0
2018-Jun-19 11:30N 42°37' W 070°40'0 0.0
2018-Jun-19 11:00N 42°37' W 070°40'0 0.0
2018-Jun-19 10:30N 42°37' W 070°40'0 0.0
2018-Jun-19 10:00N 42°37' W 070°40'0 0.0
2018-Jun-19 09:30N 42°37' W 070°40'0 0.0
2018-Jun-19 09:00N 42°37' W 070°40'0 0.0
2018-Jun-19 08:30N 42°37' W 070°40'0 0.0
2018-Jun-19 08:00N 42°37' W 070°40'0 0.0
2018-Jun-19 07:30N 42°37' W 070°40'0 0.0
2018-Jun-19 07:00N 42°37' W 070°40'0 0.0
2018-Jun-19 06:30N 42°37' W 070°40'0 0.0
2018-Jun-19 06:00N 42°37' W 070°40'0 0.0
2018-Jun-19 05:30N 42°37' W 070°40'0 0.0
2018-Jun-19 05:00N 42°37' W 070°40'0 0.0
2018-Jun-19 04:30N 42°37' W 070°40'0 0.0
2018-Jun-19 04:01N 42°37' W 070°40'0 0.0
2018-Jun-19 03:30N 42°37' W 070°40'0 0.0
2018-Jun-19 03:00N 42°37' W 070°40'0 0.0
2018-Jun-19 02:30N 42°37' W 070°40'0 0.0
2018-Jun-19 02:00N 42°37' W 070°40'0 0.0
2018-Jun-19 01:30N 42°37' W 070°40'0 0.0
2018-Jun-19 01:00N 42°37' W 070°40'0 0.0
2018-Jun-19 00:30N 42°37' W 070°40'0 0.0
2018-Jun-19 00:00N 42°37' W 070°40'0 0.0
2018-Jun-18 23:29N 42°37' W 070°40'0 0.0
2018-Jun-18 23:00N 42°37' W 070°40'0 0.0
2018-Jun-18 22:30N 42°37' W 070°40'0 0.0
2018-Jun-18 22:00N 42°37' W 070°40'0 0.0
2018-Jun-18 21:30N 42°37' W 070°40'0 0.0
2018-Jun-18 21:00N 42°37' W 070°40'0 0.0
2018-Jun-18 20:30N 42°37' W 070°40'0 0.0
2018-Jun-18 20:00N 42°37' W 070°40'0 0.0
2018-Jun-18 19:30N 42°37' W 070°40'1 1.3
2018-Jun-18 19:00N 42°37' W 070°39'0 0.0
2018-Jun-18 18:30N 42°37' W 070°39'0 0.0
2018-Jun-18 18:00N 42°37' W 070°39'0 0.0
2018-Jun-18 17:30N 42°37' W 070°39'0 0.0
2018-Jun-18 17:00N 42°37' W 070°39'1 2.2
2018-Jun-18 16:30N 42°36' W 070°40'510.3
2018-Jun-18 16:00N 42°34' W 070°34'612.5
2018-Jun-18 15:30N 42°32' W 070°26'1 1.9
2018-Jun-18 15:00N 42°32' W 070°24'0 0.0
2018-Jun-18 14:30N 42°32' W 070°24'0 0.8
2018-Jun-18 14:00N 42°33' W 070°25'0 0.0
2018-Jun-18 13:30N 42°33' W 070°25'3 6.8
2018-Jun-18 13:00N 42°33' W 070°29'612.2
2018-Jun-18 12:30N 42°34' W 070°38'3 6.4
2018-Jun-18 12:00N 42°37' W 070°39'0 0.1
2018-Jun-18 11:30N 42°37' W 070°39'1 1.3
2018-Jun-18 11:00N 42°37' W 070°40'0 0.0
2018-Jun-18 10:30N 42°37' W 070°40'0 0.0
2018-Jun-18 10:00N 42°37' W 070°40'0 0.0
2018-Jun-18 09:30N 42°37' W 070°40'0 0.0
2018-Jun-18 09:00N 42°37' W 070°40'0 0.0
2018-Jun-18 08:30N 42°37' W 070°40'0 0.0
2018-Jun-18 08:00N 42°37' W 070°40'0 0.0
2018-Jun-18 07:30N 42°37' W 070°40'0 0.0
2018-Jun-18 07:00N 42°37' W 070°40'0 0.0
2018-Jun-18 06:30N 42°37' W 070°40'0 0.0
2018-Jun-18 06:00N 42°37' W 070°40'0 0.0
2018-Jun-18 05:30N 42°37' W 070°40'0 0.0
2018-Jun-18 05:00N 42°37' W 070°40'0 0.0
2018-Jun-18 04:30N 42°37' W 070°40'0 0.0
2018-Jun-18 04:00N 42°37' W 070°40'0 0.0
2018-Jun-18 03:30N 42°37' W 070°40'0 0.0
2018-Jun-18 03:00N 42°37' W 070°40'0 0.0
2018-Jun-18 02:30N 42°37' W 070°40'0 0.0
2018-Jun-18 02:00N 42°37' W 070°40'0 0.0
2018-Jun-18 01:30N 42°37' W 070°40'0 0.0
2018-Jun-18 01:00N 42°37' W 070°40'0 0.0
2018-Jun-18 00:30N 42°37' W 070°40'0 0.0
2018-Jun-18 00:00N 42°37' W 070°40'0 0.0
2018-Jun-17 23:30N 42°37' W 070°40'0 0.0
2018-Jun-17 23:00N 42°37' W 070°40'0 0.0
2018-Jun-17 22:30N 42°37' W 070°40'0 0.0
2018-Jun-17 22:00N 42°37' W 070°40'0 0.0
2018-Jun-17 21:30N 42°37' W 070°40'0 0.6
2018-Jun-17 21:00N 42°37' W 070°39'0 0.8
2018-Jun-17 20:30N 42°37' W 070°39'2 4.6
2018-Jun-17 20:00N 42°35' W 070°39'510.7
2018-Jun-17 19:30N 42°36' W 070°32'510.6
2018-Jun-17 19:00N 42°37' W 070°25'3 6.1
2018-Jun-17 18:30N 42°37' W 070°21'0 0.0
2018-Jun-17 18:00N 42°37' W 070°21'2 3.7
2018-Jun-17 17:30N 42°38' W 070°19'3 5.4
2018-Jun-17 17:00N 42°39' W 070°15'0 0.0
2018-Jun-17 16:30N 42°39' W 070°15'0 0.1
2018-Jun-17 16:00N 42°39' W 070°15'1 2.7
2018-Jun-17 15:30N 42°38' W 070°14'0 0.0
2018-Jun-17 15:00N 42°38' W 070°14'0 0.0
2018-Jun-17 14:31N 42°38' W 070°14'0 0.0
2018-Jun-17 14:00N 42°38' W 070°14'0 0.3
2018-Jun-17 13:30N 42°38' W 070°14'4 7.4
2018-Jun-17 13:00N 42°38' W 070°19'612.2
2018-Jun-17 12:30N 42°36' W 070°27'612.0
2018-Jun-17 12:00N 42°35' W 070°35'4 8.1
2018-Jun-17 11:30N 42°36' W 070°40'1 1.8
2018-Jun-17 11:00N 42°37' W 070°39'0 0.0
2018-Jun-17 10:30N 42°37' W 070°39'0 0.0
2018-Jun-17 10:00N 42°37' W 070°39'0 0.0
2018-Jun-17 09:30N 42°37' W 070°39'0 0.0
2018-Jun-17 09:00N 42°37' W 070°39'0 0.0
2018-Jun-17 08:30N 42°37' W 070°39'0 0.0
2018-Jun-17 08:00N 42°37' W 070°39'0 0.0
2018-Jun-17 07:30N 42°37' W 070°39'0 0.0
2018-Jun-17 07:01N 42°37' W 070°39'0 0.0
2018-Jun-17 06:30N 42°37' W 070°39'0 0.0
2018-Jun-17 06:00N 42°37' W 070°39'0 0.0
2018-Jun-17 05:30N 42°37' W 070°39'0 0.0
2018-Jun-17 05:00N 42°37' W 070°39'0 0.0
2018-Jun-17 04:30N 42°37' W 070°39'0 0.0
2018-Jun-17 04:01N 42°37' W 070°39'0 0.0
2018-Jun-17 03:30N 42°37' W 070°39'1 1.1
2018-Jun-17 03:00N 42°37' W 070°40'4 7.5
2018-Jun-17 02:30N 42°33' W 070°42'3 5.4
2018-Jun-17 02:00N 42°31' W 070°45'3 5.1
2018-Jun-17 01:30N 42°30' W 070°48'2 4.4
2018-Jun-17 01:00N 42°33' W 070°47'3 5.4
2018-Jun-17 00:29N 42°34' W 070°44'3 5.3
2018-Jun-17 00:00N 42°35' W 070°41'2 3.6
2018-Jun-16 23:30N 42°37' W 070°40'1 1.1
2018-Jun-16 23:00N 42°37' W 070°39'0 0.0
2018-Jun-16 22:30N 42°37' W 070°39'0 0.0
2018-Jun-16 21:59N 42°37' W 070°39'0 0.0
2018-Jun-16 21:30N 42°37' W 070°39'0 0.0
2018-Jun-16 21:00N 42°37' W 070°39'0 0.0
2018-Jun-16 20:30N 42°37' W 070°39'0 0.0
2018-Jun-16 20:00N 42°37' W 070°39'2 4.7
2018-Jun-16 19:30N 42°35' W 070°39'612.5
2018-Jun-16 19:00N 42°36' W 070°31'612.3
2018-Jun-16 18:30N 42°37' W 070°23'612.2
2018-Jun-16 17:59N 42°38' W 070°14'0 0.8
2018-Jun-16 17:28N 42°38' W 070°14'0 0.2
2018-Jun-16 16:52N 42°38' W 070°14'0 0.2
2018-Jun-16 16:30N 42°39' W 070°14'0 0.2
2018-Jun-16 16:00N 42°39' W 070°14'0 0.4
2018-Jun-16 15:30N 42°39' W 070°13'4 7.4
2018-Jun-16 15:00N 42°37' W 070°18'0 0.0
2018-Jun-16 14:28N 42°37' W 070°18'0 0.1
2018-Jun-16 13:59N 42°36' W 070°18'2 4.1
2018-Jun-16 13:30N 42°37' W 070°20'0 0.2
2018-Jun-16 13:00N 42°37' W 070°20'2 3.3
2018-Jun-16 12:30N 42°37' W 070°22'611.1
2018-Jun-16 12:00N 42°36' W 070°30'611.2
2018-Jun-16 11:30N 42°35' W 070°37'2 4.9
2018-Jun-16 11:01N 42°37' W 070°39'0 0.3
2018-Jun-16 10:30N 42°37' W 070°39'0 0.0
2018-Jun-16 10:00N 42°37' W 070°39'0 0.0
2018-Jun-16 09:31N 42°37' W 070°39'0 0.0
2018-Jun-16 09:00N 42°37' W 070°39'0 0.0
2018-Jun-16 08:30N 42°37' W 070°39'0 0.0
2018-Jun-16 08:00N 42°37' W 070°39'0 0.0
2018-Jun-16 07:30N 42°37' W 070°39'0 0.0
2018-Jun-16 07:00N 42°37' W 070°39'0 0.0
2018-Jun-16 06:30N 42°37' W 070°39'0 0.0
2018-Jun-16 06:00N 42°37' W 070°39'0 0.0
2018-Jun-16 05:30N 42°37' W 070°39'0 0.0
2018-Jun-16 05:00N 42°37' W 070°39'0 0.0
2018-Jun-16 04:30N 42°37' W 070°39'0 0.0
2018-Jun-16 04:00N 42°37' W 070°39'0 0.0
2018-Jun-16 03:30N 42°37' W 070°39'0 0.0
2018-Jun-16 03:01N 42°37' W 070°39'0 0.0
2018-Jun-16 02:30N 42°37' W 070°39'0 0.0
2018-Jun-16 02:00N 42°37' W 070°39'0 0.0
2018-Jun-16 01:30N 42°37' W 070°39'0 0.0
2018-Jun-16 01:00N 42°37' W 070°39'0 0.0
2018-Jun-16 00:30N 42°37' W 070°39'0 0.0
2018-Jun-16 00:00N 42°37' W 070°39'0 0.0
2018-Jun-15 23:30N 42°37' W 070°39'0 0.0
2018-Jun-15 23:01N 42°37' W 070°39'0 0.0
2018-Jun-15 22:30N 42°37' W 070°39'0 0.0
2018-Jun-15 22:00N 42°37' W 070°39'0 0.0
2018-Jun-15 21:30N 42°37' W 070°39'0 0.0
2018-Jun-15 21:00N 42°37' W 070°39'0 0.0
2018-Jun-15 20:30N 42°37' W 070°39'0 0.0
2018-Jun-15 20:00N 42°37' W 070°39'2 4.7
2018-Jun-15 19:30N 42°35' W 070°40'611.3
2018-Jun-15 19:00N 42°37' W 070°33'612.4
2018-Jun-15 18:30N 42°40' W 070°26'612.4
2018-Jun-15 18:00N 42°43' W 070°19'5 9.4
2018-Jun-15 17:30N 42°46' W 070°13'0 0.0
2018-Jun-15 17:00N 42°46' W 070°13'0 0.9
2018-Jun-15 16:30N 42°45' W 070°13'1 1.0
2018-Jun-15 16:00N 42°45' W 070°13'1 2.4
2018-Jun-15 15:30N 42°46' W 070°15'2 4.6
2018-Jun-15 15:00N 42°44' W 070°17'0 0.0
2018-Jun-15 14:30N 42°44' W 070°17'1 1.2
2018-Jun-15 14:00N 42°44' W 070°16'0 0.0
2018-Jun-15 13:30N 42°44' W 070°16'4 8.2
2018-Jun-15 13:00N 42°41' W 070°20'4 9.0
2018-Jun-15 12:31N 42°38' W 070°25'611.1
2018-Jun-15 12:00N 42°37' W 070°32'510.7
2018-Jun-15 11:30N 42°35' W 070°39'2 4.7
2018-Jun-15 11:01N 42°37' W 070°39'0 0.9
2018-Jun-15 10:31N 42°37' W 070°39'0 0.6
2018-Jun-15 10:00N 42°37' W 070°40'0 0.0
2018-Jun-15 09:31N 42°37' W 070°40'0 0.0
2018-Jun-15 09:01N 42°37' W 070°40'0 0.0
2018-Jun-15 08:31N 42°37' W 070°40'0 0.0
2018-Jun-15 08:01N 42°37' W 070°40'0 0.0
2018-Jun-15 07:30N 42°37' W 070°40'0 0.0
2018-Jun-15 07:01N 42°37' W 070°40'0 0.0
2018-Jun-15 06:30N 42°37' W 070°40'0 0.0
2018-Jun-15 06:00N 42°37' W 070°40'0 0.0
2018-Jun-15 05:31N 42°37' W 070°40'0 0.0
2018-Jun-15 05:00N 42°37' W 070°40'0 0.0
2018-Jun-15 04:31N 42°37' W 070°40'0 0.0
2018-Jun-15 04:01N 42°37' W 070°40'0 0.0
2018-Jun-15 03:31N 42°37' W 070°40'0 0.0
2018-Jun-15 03:01N 42°37' W 070°40'0 0.0
2018-Jun-15 02:31N 42°37' W 070°40'0 0.0
2018-Jun-15 02:00N 42°37' W 070°40'0 0.0
2018-Jun-15 01:30N 42°37' W 070°40'0 0.0
2018-Jun-15 01:01N 42°37' W 070°40'0 0.0
2018-Jun-15 00:31N 42°37' W 070°40'0 0.0
2018-Jun-15 00:01N 42°37' W 070°40'0 0.0
2018-Jun-14 23:30N 42°37' W 070°40'0 0.0
2018-Jun-14 23:00N 42°37' W 070°40'0 0.0
2018-Jun-14 22:30N 42°37' W 070°40'0 0.0
2018-Jun-14 22:00N 42°37' W 070°40'0 0.0
2018-Jun-14 21:30N 42°37' W 070°40'0 0.0
2018-Jun-14 21:00N 42°37' W 070°40'  
Track history (hours):
 
Tides and Currents Weather Stations Pressure Air Temp Water Temp Dewpoint Dewpoint Depression Visibility Wind Speed Wind Dir Waves Ship Positions

Yankee Freedom

Owner: Yankee Freedom Inc, Gloucester, MA. More information available from US FCC via Universal Licensing System and Coast Guard Vessel Documentation Center.

Last reported at 2018-Jun-24 20:30 UTC. Time now 2018-Jun-24 20:32 UTC.
Position N 42°35' W 070°27'.

Type: Ship. MMSI: 367665870.

Date/timePositionNaut miles runAvg speedWind from/ knotsBaromVisibWave heightAir tempDewpointWater temp
2018-Jun-24 20:30N 42°35' W 070°27'0 0.0
2018-Jun-24 20:00N 42°35' W 070°27'0 0.2
2018-Jun-24 19:29N 42°35' W 070°27'0 0.0
2018-Jun-24 19:00N 42°35' W 070°27'2 4.1
2018-Jun-24 18:30N 42°35' W 070°30'612.4
2018-Jun-24 18:00N 42°34' W 070°38'3 5.8
2018-Jun-24 17:30N 42°37' W 070°39'0 0.0
2018-Jun-24 17:00N 42°37' W 070°39'0 0.4
2018-Jun-24 16:30N 42°37' W 070°39'3 5.4
2018-Jun-24 16:00N 42°34' W 070°38'612.1
2018-Jun-24 15:30N 42°34' W 070°30'4 8.7
2018-Jun-24 15:00N 42°33' W 070°24'0 0.5
2018-Jun-24 14:30N 42°33' W 070°25'0 0.4
2018-Jun-24 14:00N 42°33' W 070°25'0 0.2
2018-Jun-24 13:30N 42°33' W 070°25'4 7.9
2018-Jun-24 12:58N 42°34' W 070°30'612.3
2018-Jun-24 12:30N 42°34' W 070°38'3 5.4
2018-Jun-24 12:00N 42°37' W 070°39'0 0.8
2018-Jun-24 11:30N 42°37' W 070°39'0 0.6
2018-Jun-24 11:00N 42°37' W 070°40'0 0.0
2018-Jun-24 10:30N 42°37' W 070°40'0 0.0
2018-Jun-24 10:00N 42°37' W 070°40'0 0.0
2018-Jun-24 09:30N 42°37' W 070°40'0 0.0
2018-Jun-24 09:00N 42°37' W 070°40'0 0.0
2018-Jun-24 08:30N 42°37' W 070°40'0 0.0
2018-Jun-24 08:00N 42°37' W 070°40'0 0.0
2018-Jun-24 07:30N 42°37' W 070°40'0 0.0
2018-Jun-24 07:01N 42°37' W 070°40'0 0.0
2018-Jun-24 06:30N 42°37' W 070°40'0 0.0
2018-Jun-24 06:00N 42°37' W 070°40'0 0.0
2018-Jun-24 05:30N 42°37' W 070°40'0 0.0
2018-Jun-24 05:01N 42°37' W 070°40'0 0.0
2018-Jun-24 04:30N 42°37' W 070°40'0 0.0
2018-Jun-24 04:00N 42°37' W 070°40'0 0.0
2018-Jun-24 03:30N 42°37' W 070°40'0 0.0
2018-Jun-24 03:00N 42°37' W 070°40'0 0.0
2018-Jun-24 02:30N 42°37' W 070°40'0 0.0
2018-Jun-24 02:00N 42°37' W 070°40'0 0.0
2018-Jun-24 01:30N 42°37' W 070°40'0 0.0
2018-Jun-24 01:00N 42°37' W 070°40'0 0.0
2018-Jun-24 00:30N 42°37' W 070°40'0 0.0
2018-Jun-24 00:00N 42°37' W 070°40'0 0.0
2018-Jun-23 23:31N 42°37' W 070°40'0 0.0
2018-Jun-23 23:00N 42°37' W 070°40'1 1.3
2018-Jun-23 22:30N 42°37' W 070°39'0 0.0
2018-Jun-23 22:00N 42°37' W 070°39'2 4.8
2018-Jun-23 21:30N 42°35' W 070°40'612.6
2018-Jun-23 21:00N 42°33' W 070°32'510.6
2018-Jun-23 20:30N 42°33' W 070°25'0 0.0
2018-Jun-23 20:00N 42°33' W 070°25'0 0.0
2018-Jun-23 19:30N 42°33' W 070°25'0 0.0
2018-Jun-23 18:59N 42°33' W 070°25'3 6.5
2018-Jun-23 18:30N 42°33' W 070°29'612.1
2018-Jun-23 18:00N 42°34' W 070°37'3 6.6
2018-Jun-23 17:30N 42°37' W 070°39'0 0.0
2018-Jun-23 17:00N 42°37' W 070°39'0 0.0
2018-Jun-23 16:30N 42°37' W 070°39'3 6.0
2018-Jun-23 16:00N 42°34' W 070°38'612.1
2018-Jun-23 15:30N 42°34' W 070°30'4 7.4
2018-Jun-23 15:00N 42°33' W 070°25'0 0.0
2018-Jun-23 14:30N 42°33' W 070°25'0 0.0
2018-Jun-23 14:00N 42°33' W 070°25'0 0.0
2018-Jun-23 13:30N 42°33' W 070°25'4 7.6
2018-Jun-23 13:00N 42°33' W 070°30'612.0
2018-Jun-23 12:30N 42°34' W 070°38'3 6.0
2018-Jun-23 12:00N 42°37' W 070°39'0 0.6
2018-Jun-23 11:30N 42°37' W 070°39'0 0.1
2018-Jun-23 03:47N 42°37' W 070°40'0 0.1
2018-Jun-23 03:31N 42°37' W 070°40'0 0.0
2018-Jun-23 03:00N 42°37' W 070°40'0 0.0
2018-Jun-23 02:31N 42°37' W 070°40'0 0.0
2018-Jun-23 02:00N 42°37' W 070°40'0 0.0
2018-Jun-23 01:30N 42°37' W 070°40'0 0.0
2018-Jun-23 01:01N 42°37' W 070°40'0 0.0
2018-Jun-23 00:30N 42°37' W 070°40'0 0.0
2018-Jun-23 00:00N 42°37' W 070°40'0 0.0
2018-Jun-22 23:29N 42°37' W 070°40'0 0.0
2018-Jun-22 23:00N 42°37' W 070°40'0 0.0
2018-Jun-22 22:30N 42°37' W 070°40'0 0.0
2018-Jun-22 22:00N 42°37' W 070°40'0 0.0
2018-Jun-22 21:30N 42°37' W 070°40'0 0.0
2018-Jun-22 21:00N 42°37' W 070°40'0 0.0
2018-Jun-22 20:30N 42°37' W 070°40'0 0.0
2018-Jun-22 20:00N 42°37' W 070°40'0 0.0
2018-Jun-22 19:30N 42°37' W 070°40'0 0.0
2018-Jun-22 19:00N 42°37' W 070°40'0 0.0
2018-Jun-22 18:31N 42°37' W 070°40'0 0.0
2018-Jun-22 18:00N 42°37' W 070°40'1 1.2
2018-Jun-22 17:30N 42°37' W 070°39'0 0.0
2018-Jun-22 17:01N 42°37' W 070°39'0 0.2
2018-Jun-22 16:31N 42°37' W 070°39'3 5.0
2018-Jun-22 16:00N 42°35' W 070°40'611.6
2018-Jun-22 15:30N 42°34' W 070°32'0 0.9
2018-Jun-22 15:01N 42°34' W 070°31'0 0.0
2018-Jun-22 14:30N 42°34' W 070°31'1 1.7
2018-Jun-22 14:00N 42°34' W 070°32'0 0.5
2018-Jun-22 13:30N 42°34' W 070°32'0 0.7
2018-Jun-22 12:59N 42°34' W 070°32'4 8.0
2018-Jun-22 12:30N 42°34' W 070°38'3 5.7
2018-Jun-22 12:00N 42°37' W 070°39'0 0.1
2018-Jun-22 11:30N 42°37' W 070°39'1 1.3
2018-Jun-22 10:59N 42°37' W 070°40'0 0.0
2018-Jun-22 10:30N 42°37' W 070°40'0 0.0
2018-Jun-22 10:00N 42°37' W 070°40'0 0.0
2018-Jun-22 09:31N 42°37' W 070°40'0 0.0
2018-Jun-22 09:00N 42°37' W 070°40'0 0.0
2018-Jun-22 08:31N 42°37' W 070°40'0 0.0
2018-Jun-22 08:00N 42°37' W 070°40'0 0.0
2018-Jun-22 07:31N 42°37' W 070°40'0 0.0
2018-Jun-22 07:00N 42°37' W 070°40'0 0.0
2018-Jun-22 06:30N 42°37' W 070°40'0 0.0
2018-Jun-22 06:00N 42°37' W 070°40'0 0.0
2018-Jun-22 05:31N 42°37' W 070°40'0 0.0
2018-Jun-22 05:01N 42°37' W 070°40'0 0.0
2018-Jun-22 04:30N 42°37' W 070°40'0 0.0
2018-Jun-22 04:00N 42°37' W 070°40'0 0.0
2018-Jun-22 03:30N 42°37' W 070°40'0 0.0
2018-Jun-22 03:00N 42°37' W 070°40'0 0.0
2018-Jun-22 02:30N 42°37' W 070°40'0 0.0
2018-Jun-22 02:00N 42°37' W 070°40'0 0.0
2018-Jun-22 01:31N 42°37' W 070°40'0 0.0
2018-Jun-22 01:00N 42°37' W 070°40'0 0.0
2018-Jun-22 00:30N 42°37' W 070°40'0 0.0
2018-Jun-22 00:00N 42°37' W 070°40'0 0.0
2018-Jun-21 23:30N 42°37' W 070°40'0 0.0
2018-Jun-21 23:00N 42°37' W 070°40'0 0.0
2018-Jun-21 22:30N 42°37' W 070°40'0 0.0
2018-Jun-21 22:00N 42°37' W 070°40'0 0.0
2018-Jun-21 21:30N 42°37' W 070°40'0 0.0
2018-Jun-21 21:00N 42°37' W 070°40'0 0.0
2018-Jun-21 20:31N 42°37' W 070°40'0 0.0
2018-Jun-21 20:00N 42°37' W 070°40'0 0.0
2018-Jun-21 19:30N 42°37' W 070°40'0 0.0
2018-Jun-21 19:00N 42°37' W 070°40'0 0.0
2018-Jun-21 18:30N 42°37' W 070°40'0 0.0
2018-Jun-21 18:00N 42°37' W 070°40'0 0.0
2018-Jun-21 17:30N 42°37' W 070°40'0 0.0
2018-Jun-21 17:00N 42°37' W 070°40'1 1.3
2018-Jun-21 16:30N 42°37' W 070°39'2 4.3
2018-Jun-21 16:00N 42°35' W 070°41'611.4
2018-Jun-21 15:30N 42°35' W 070°33'1 2.6
2018-Jun-21 15:00N 42°36' W 070°31'1 1.7
2018-Jun-21 14:30N 42°35' W 070°30'2 4.4
2018-Jun-21 14:00N 42°35' W 070°27'1 1.2
2018-Jun-21 13:30N 42°36' W 070°27'2 4.9
2018-Jun-21 13:00N 42°35' W 070°31'611.7
2018-Jun-21 12:30N 42°34' W 070°39'2 5.0
2018-Jun-21 12:00N 42°37' W 070°39'0 0.0
2018-Jun-21 11:30N 42°37' W 070°39'1 1.3
2018-Jun-21 11:00N 42°37' W 070°40'0 0.0
2018-Jun-21 10:30N 42°37' W 070°40'0 0.0
2018-Jun-21 10:00N 42°37' W 070°40'0 0.0
2018-Jun-21 09:30N 42°37' W 070°40'0 0.0
2018-Jun-21 09:00N 42°37' W 070°40'0 0.0
2018-Jun-21 08:30N 42°37' W 070°40'0 0.0
2018-Jun-21 08:00N 42°37' W 070°40'0 0.0
2018-Jun-21 07:30N 42°37' W 070°40'0 0.0
2018-Jun-21 07:00N 42°37' W 070°40'0 0.0
2018-Jun-21 06:30N 42°37' W 070°40'0 0.0
2018-Jun-21 06:00N 42°37' W 070°40'0 0.0
2018-Jun-21 05:30N 42°37' W 070°40'0 0.0
2018-Jun-21 05:00N 42°37' W 070°40'0 0.0
2018-Jun-21 04:30N 42°37' W 070°40'0 0.0
2018-Jun-21 03:59N 42°37' W 070°40'0 0.0
2018-Jun-21 03:30N 42°37' W 070°40'0 0.0
2018-Jun-21 03:00N 42°37' W 070°40'0 0.0
2018-Jun-21 02:30N 42°37' W 070°40'0 0.0
2018-Jun-21 02:00N 42°37' W 070°40'0 0.0
2018-Jun-21 01:30N 42°37' W 070°40'0 0.0
2018-Jun-21 01:00N 42°37' W 070°40'0 0.0
2018-Jun-21 00:30N 42°37' W 070°40'0 0.0
2018-Jun-21 00:00N 42°37' W 070°40'0 0.0
2018-Jun-20 23:30N 42°37' W 070°40'0 0.0
2018-Jun-20 23:00N 42°37' W 070°40'0 0.0
2018-Jun-20 22:30N 42°37' W 070°40'0 0.0
2018-Jun-20 22:00N 42°37' W 070°40'0 0.0
2018-Jun-20 21:30N 42°37' W 070°40'0 0.0
2018-Jun-20 21:00N 42°37' W 070°40'0 0.0
2018-Jun-20 20:30N 42°37' W 070°40'0 0.0
2018-Jun-20 20:00N 42°37' W 070°40'0 0.0
2018-Jun-20 19:30N 42°37' W 070°40'0 0.0
2018-Jun-20 19:00N 42°37' W 070°40'0 0.0
2018-Jun-20 18:30N 42°37' W 070°40'0 0.0
2018-Jun-20 18:00N 42°37' W 070°40'0 0.0
2018-Jun-20 17:30N 42°37' W 070°40'0 0.0
2018-Jun-20 17:00N 42°37' W 070°40'0 0.0
2018-Jun-20 16:31N 42°37' W 070°40'0 0.0
2018-Jun-20 16:00N 42°37' W 070°40'0 0.0
2018-Jun-20 15:30N 42°37' W 070°40'0 0.0
2018-Jun-20 15:00N 42°37' W 070°40'0 0.0
2018-Jun-20 14:30N 42°37' W 070°40'0 0.0
2018-Jun-20 14:00N 42°37' W 070°40'0 0.0
2018-Jun-20 13:30N 42°37' W 070°40'0 0.0
2018-Jun-20 13:00N 42°37' W 070°40'0 0.0
2018-Jun-20 12:30N 42°37' W 070°40'0 0.0
2018-Jun-20 12:00N 42°37' W 070°40'0 0.0
2018-Jun-20 11:30N 42°37' W 070°40'0 0.0
2018-Jun-20 11:00N 42°37' W 070°40'0 0.0
2018-Jun-20 10:30N 42°37' W 070°40'0 0.0
2018-Jun-20 10:00N 42°37' W 070°40'0 0.0
2018-Jun-20 09:30N 42°37' W 070°40'0 0.0
2018-Jun-20 09:00N 42°37' W 070°40'0 0.0
2018-Jun-20 08:31N 42°37' W 070°40'0 0.0
2018-Jun-20 08:00N 42°37' W 070°40'0 0.0
2018-Jun-20 07:30N 42°37' W 070°40'0 0.0
2018-Jun-20 07:00N 42°37' W 070°40'0 0.0
2018-Jun-20 06:30N 42°37' W 070°40'0 0.0
2018-Jun-20 06:01N 42°37' W 070°40'0 0.0
2018-Jun-20 05:30N 42°37' W 070°40'0 0.0
2018-Jun-20 05:00N 42°37' W 070°40'0 0.0
2018-Jun-20 04:30N 42°37' W 070°40'0 0.0
2018-Jun-20 04:00N 42°37' W 070°40'0 0.0
2018-Jun-20 03:30N 42°37' W 070°40'0 0.0
2018-Jun-20 03:00N 42°37' W 070°40'0 0.0
2018-Jun-20 02:30N 42°37' W 070°40'0 0.0
2018-Jun-20 02:00N 42°37' W 070°40'0 0.0
2018-Jun-20 01:30N 42°37' W 070°40'0 0.0
2018-Jun-20 01:00N 42°37' W 070°40'0 0.0
2018-Jun-20 00:30N 42°37' W 070°40'0 0.0
2018-Jun-20 00:00N 42°37' W 070°40'0 0.0
2018-Jun-19 23:30N 42°37' W 070°40'0 0.0
2018-Jun-19 23:00N 42°37' W 070°40'0 0.0
2018-Jun-19 22:30N 42°37' W 070°40'0 0.0
2018-Jun-19 22:00N 42°37' W 070°40'0 0.0
2018-Jun-19 21:30N 42°37' W 070°40'0 0.0
2018-Jun-19 21:00N 42°37' W 070°40'0 0.0
2018-Jun-19 20:30N 42°37' W 070°40'0 0.0
2018-Jun-19 20:00N 42°37' W 070°40'0 0.0
2018-Jun-19 19:30N 42°37' W 070°40'0 0.0
2018-Jun-19 19:00N 42°37' W 070°40'0 0.0
2018-Jun-19 18:30N 42°37' W 070°40'0 0.0
2018-Jun-19 18:00N 42°37' W 070°40'0 0.0
2018-Jun-19 17:30N 42°37' W 070°40'0 0.0
2018-Jun-19 17:00N 42°37' W 070°40'0 0.0
2018-Jun-19 16:29N 42°37' W 070°40'0 0.0
2018-Jun-19 16:00N 42°37' W 070°40'0 0.0
2018-Jun-19 15:30N 42°37' W 070°40'0 0.0
2018-Jun-19 15:00N 42°37' W 070°40'0 0.0
2018-Jun-19 14:30N 42°37' W 070°40'0 0.0
2018-Jun-19 14:00N 42°37' W 070°40'0 0.0
2018-Jun-19 13:30N 42°37' W 070°40'0 0.0
2018-Jun-19 13:00N 42°37' W 070°40'0 0.0
2018-Jun-19 12:30N 42°37' W 070°40'0 0.0
2018-Jun-19 12:00N 42°37' W 070°40'0 0.0
2018-Jun-19 11:30N 42°37' W 070°40'0 0.0
2018-Jun-19 11:00N 42°37' W 070°40'0 0.0
2018-Jun-19 10:30N 42°37' W 070°40'0 0.0
2018-Jun-19 10:00N 42°37' W 070°40'0 0.0
2018-Jun-19 09:30N 42°37' W 070°40'0 0.0
2018-Jun-19 09:00N 42°37' W 070°40'0 0.0
2018-Jun-19 08:30N 42°37' W 070°40'0 0.0
2018-Jun-19 08:00N 42°37' W 070°40'0 0.0
2018-Jun-19 07:30N 42°37' W 070°40'0 0.0
2018-Jun-19 07:00N 42°37' W 070°40'0 0.0
2018-Jun-19 06:30N 42°37' W 070°40'0 0.0
2018-Jun-19 06:00N 42°37' W 070°40'0 0.0
2018-Jun-19 05:30N 42°37' W 070°40'0 0.0
2018-Jun-19 05:00N 42°37' W 070°40'0 0.0
2018-Jun-19 04:30N 42°37' W 070°40'0 0.0
2018-Jun-19 04:01N 42°37' W 070°40'0 0.0
2018-Jun-19 03:30N 42°37' W 070°40'0 0.0
2018-Jun-19 03:00N 42°37' W 070°40'0 0.0
2018-Jun-19 02:30N 42°37' W 070°40'0 0.0
2018-Jun-19 02:00N 42°37' W 070°40'0 0.0
2018-Jun-19 01:30N 42°37' W 070°40'0 0.0
2018-Jun-19 01:00N 42°37' W 070°40'0 0.0
2018-Jun-19 00:30N 42°37' W 070°40'0 0.0
2018-Jun-19 00:00N 42°37' W 070°40'0 0.0
2018-Jun-18 23:29N 42°37' W 070°40'0 0.0
2018-Jun-18 23:00N 42°37' W 070°40'0 0.0
2018-Jun-18 22:30N 42°37' W 070°40'0 0.0
2018-Jun-18 22:00N 42°37' W 070°40'0 0.0
2018-Jun-18 21:30N 42°37' W 070°40'0 0.0
2018-Jun-18 21:00N 42°37' W 070°40'0 0.0
2018-Jun-18 20:30N 42°37' W 070°40'0 0.0
2018-Jun-18 20:00N 42°37' W 070°40'0 0.0
2018-Jun-18 19:30N 42°37' W 070°40'1 1.3
2018-Jun-18 19:00N 42°37' W 070°39'0 0.0
2018-Jun-18 18:30N 42°37' W 070°39'0 0.0
2018-Jun-18 18:00N 42°37' W 070°39'0 0.0
2018-Jun-18 17:30N 42°37' W 070°39'0 0.0
2018-Jun-18 17:00N 42°37' W 070°39'1 2.2
2018-Jun-18 16:30N 42°36' W 070°40'510.3
2018-Jun-18 16:00N 42°34' W 070°34'612.5
2018-Jun-18 15:30N 42°32' W 070°26'1 1.9
2018-Jun-18 15:00N 42°32' W 070°24'0 0.0
2018-Jun-18 14:30N 42°32' W 070°24'0 0.8
2018-Jun-18 14:00N 42°33' W 070°25'0 0.0
2018-Jun-18 13:30N 42°33' W 070°25'3 6.8
2018-Jun-18 13:00N 42°33' W 070°29'612.2
2018-Jun-18 12:30N 42°34' W 070°38'3 6.4
2018-Jun-18 12:00N 42°37' W 070°39'0 0.1
2018-Jun-18 11:30N 42°37' W 070°39'1 1.3
2018-Jun-18 11:00N 42°37' W 070°40'0 0.0
2018-Jun-18 10:30N 42°37' W 070°40'0 0.0
2018-Jun-18 10:00N 42°37' W 070°40'0 0.0
2018-Jun-18 09:30N 42°37' W 070°40'0 0.0
2018-Jun-18 09:00N 42°37' W 070°40'0 0.0
2018-Jun-18 08:30N 42°37' W 070°40'0 0.0
2018-Jun-18 08:00N 42°37' W 070°40'0 0.0
2018-Jun-18 07:30N 42°37' W 070°40'0 0.0
2018-Jun-18 07:00N 42°37' W 070°40'0 0.0
2018-Jun-18 06:30N 42°37' W 070°40'0 0.0
2018-Jun-18 06:00N 42°37' W 070°40'0 0.0
2018-Jun-18 05:30N 42°37' W 070°40'0 0.0
2018-Jun-18 05:00N 42°37' W 070°40'0 0.0
2018-Jun-18 04:30N 42°37' W 070°40'0 0.0
2018-Jun-18 04:00N 42°37' W 070°40'0 0.0
2018-Jun-18 03:30N 42°37' W 070°40'0 0.0
2018-Jun-18 03:00N 42°37' W 070°40'0 0.0
2018-Jun-18 02:30N 42°37' W 070°40'0 0.0
2018-Jun-18 02:00N 42°37' W 070°40'0 0.0
2018-Jun-18 01:30N 42°37' W 070°40'0 0.0
2018-Jun-18 01:00N 42°37' W 070°40'0 0.0
2018-Jun-18 00:30N 42°37' W 070°40'0 0.0
2018-Jun-18 00:00N 42°37' W 070°40'0 0.0
2018-Jun-17 23:30N 42°37' W 070°40'0 0.0
2018-Jun-17 23:00N 42°37' W 070°40'0 0.0
2018-Jun-17 22:30N 42°37' W 070°40'0 0.0
2018-Jun-17 22:00N 42°37' W 070°40'0 0.0
2018-Jun-17 21:30N 42°37' W 070°40'0 0.6
2018-Jun-17 21:00N 42°37' W 070°39'0 0.8
2018-Jun-17 20:30N 42°37' W 070°39'2 4.6
2018-Jun-17 20:00N 42°35' W 070°39'510.7
2018-Jun-17 19:30N 42°36' W 070°32'510.6
2018-Jun-17 19:00N 42°37' W 070°25'3 6.1
2018-Jun-17 18:30N 42°37' W 070°21'0 0.0
2018-Jun-17 18:00N 42°37' W 070°21'2 3.7
2018-Jun-17 17:30N 42°38' W 070°19'3 5.4
2018-Jun-17 17:00N 42°39' W 070°15'0 0.0
2018-Jun-17 16:30N 42°39' W 070°15'0 0.1
2018-Jun-17 16:00N 42°39' W 070°15'1 2.7
2018-Jun-17 15:30N 42°38' W 070°14'0 0.0
2018-Jun-17 15:00N 42°38' W 070°14'0 0.0
2018-Jun-17 14:31N 42°38' W 070°14'0 0.0
2018-Jun-17 14:00N 42°38' W 070°14'0 0.3
2018-Jun-17 13:30N 42°38' W 070°14'4 7.4
2018-Jun-17 13:00N 42°38' W 070°19'612.2
2018-Jun-17 12:30N 42°36' W 070°27'612.0
2018-Jun-17 12:00N 42°35' W 070°35'4 8.1
2018-Jun-17 11:30N 42°36' W 070°40'1 1.8
2018-Jun-17 11:00N 42°37' W 070°39'0 0.0
2018-Jun-17 10:30N 42°37' W 070°39'0 0.0
2018-Jun-17 10:00N 42°37' W 070°39'0 0.0
2018-Jun-17 09:30N 42°37' W 070°39'0 0.0
2018-Jun-17 09:00N 42°37' W 070°39'0 0.0
2018-Jun-17 08:30N 42°37' W 070°39'0 0.0
2018-Jun-17 08:00N 42°37' W 070°39'0 0.0
2018-Jun-17 07:30N 42°37' W 070°39'0 0.0
2018-Jun-17 07:01N 42°37' W 070°39'0 0.0
2018-Jun-17 06:30N 42°37' W 070°39'0 0.0
2018-Jun-17 06:00N 42°37' W 070°39'0 0.0
2018-Jun-17 05:30N 42°37' W 070°39'0 0.0
2018-Jun-17 05:00N 42°37' W 070°39'0 0.0
2018-Jun-17 04:30N 42°37' W 070°39'0 0.0
2018-Jun-17 04:01N 42°37' W 070°39'0 0.0
2018-Jun-17 03:30N 42°37' W 070°39'1 1.1
2018-Jun-17 03:00N 42°37' W 070°40'4 7.5
2018-Jun-17 02:30N 42°33' W 070°42'3 5.4
2018-Jun-17 02:00N 42°31' W 070°45'3 5.1
2018-Jun-17 01:30N 42°30' W 070°48'2 4.4
2018-Jun-17 01:00N 42°33' W 070°47'3 5.4
2018-Jun-17 00:29N 42°34' W 070°44'3 5.3
2018-Jun-17 00:00N 42°35' W 070°41'2 3.6
2018-Jun-16 23:30N 42°37' W 070°40'1 1.1
2018-Jun-16 23:00N 42°37' W 070°39'0 0.0
2018-Jun-16 22:30N 42°37' W 070°39'0 0.0
2018-Jun-16 21:59N 42°37' W 070°39'0 0.0
2018-Jun-16 21:30N 42°37' W 070°39'0 0.0
2018-Jun-16 21:00N 42°37' W 070°39'0 0.0
2018-Jun-16 20:30N 42°37' W 070°39'0 0.0
2018-Jun-16 20:00N 42°37' W 070°39'2 4.7
2018-Jun-16 19:30N 42°35' W 070°39'612.5
2018-Jun-16 19:00N 42°36' W 070°31'612.3
2018-Jun-16 18:30N 42°37' W 070°23'612.2
2018-Jun-16 17:59N 42°38' W 070°14'0 0.8
2018-Jun-16 17:28N 42°38' W 070°14'0 0.2
2018-Jun-16 16:52N 42°38' W 070°14'0 0.2
2018-Jun-16 16:30N 42°39' W 070°14'0 0.2
2018-Jun-16 16:00N 42°39' W 070°14'0 0.4
2018-Jun-16 15:30N 42°39' W 070°13'4 7.4
2018-Jun-16 15:00N 42°37' W 070°18'0 0.0
2018-Jun-16 14:28N 42°37' W 070°18'0 0.1
2018-Jun-16 13:59N 42°36' W 070°18'2 4.1
2018-Jun-16 13:30N 42°37' W 070°20'0 0.2
2018-Jun-16 13:00N 42°37' W 070°20'2 3.3
2018-Jun-16 12:30N 42°37' W 070°22'611.1
2018-Jun-16 12:00N 42°36' W 070°30'611.2
2018-Jun-16 11:30N 42°35' W 070°37'2 4.9
2018-Jun-16 11:01N 42°37' W 070°39'0 0.3
2018-Jun-16 10:30N 42°37' W 070°39'0 0.0
2018-Jun-16 10:00N 42°37' W 070°39'0 0.0
2018-Jun-16 09:31N 42°37' W 070°39'0 0.0
2018-Jun-16 09:00N 42°37' W 070°39'0 0.0
2018-Jun-16 08:30N 42°37' W 070°39'0 0.0
2018-Jun-16 08:00N 42°37' W 070°39'0 0.0
2018-Jun-16 07:30N 42°37' W 070°39'0 0.0
2018-Jun-16 07:00N 42°37' W 070°39'0 0.0
2018-Jun-16 06:30N 42°37' W 070°39'0 0.0
2018-Jun-16 06:00N 42°37' W 070°39'0 0.0
2018-Jun-16 05:30N 42°37' W 070°39'0 0.0
2018-Jun-16 05:00N 42°37' W 070°39'0 0.0
2018-Jun-16 04:30N 42°37' W 070°39'0 0.0
2018-Jun-16 04:00N 42°37' W 070°39'0 0.0
2018-Jun-16 03:30N 42°37' W 070°39'0 0.0
2018-Jun-16 03:01N 42°37' W 070°39'0 0.0
2018-Jun-16 02:30N 42°37' W 070°39'0 0.0
2018-Jun-16 02:00N 42°37' W 070°39'0 0.0
2018-Jun-16 01:30N 42°37' W 070°39'0 0.0
2018-Jun-16 01:00N 42°37' W 070°39'0 0.0
2018-Jun-16 00:30N 42°37' W 070°39'0 0.0
2018-Jun-16 00:00N 42°37' W 070°39'0 0.0
2018-Jun-15 23:30N 42°37' W 070°39'0 0.0
2018-Jun-15 23:01N 42°37' W 070°39'0 0.0
2018-Jun-15 22:30N 42°37' W 070°39'0 0.0
2018-Jun-15 22:00N 42°37' W 070°39'0 0.0
2018-Jun-15 21:30N 42°37' W 070°39'0 0.0
2018-Jun-15 21:00N 42°37' W 070°39'0 0.0
2018-Jun-15 20:30N 42°37' W 070°39'0 0.0
2018-Jun-15 20:00N 42°37' W 070°39'2 4.7
2018-Jun-15 19:30N 42°35' W 070°40'611.3
2018-Jun-15 19:00N 42°37' W 070°33'612.4
2018-Jun-15 18:30N 42°40' W 070°26'612.4
2018-Jun-15 18:00N 42°43' W 070°19'5 9.4
2018-Jun-15 17:30N 42°46' W 070°13'0 0.0
2018-Jun-15 17:00N 42°46' W 070°13'0 0.9
2018-Jun-15 16:30N 42°45' W 070°13'1 1.0
2018-Jun-15 16:00N 42°45' W 070°13'1 2.4
2018-Jun-15 15:30N 42°46' W 070°15'2 4.6
2018-Jun-15 15:00N 42°44' W 070°17'0 0.0
2018-Jun-15 14:30N 42°44' W 070°17'1 1.2
2018-Jun-15 14:00N 42°44' W 070°16'0 0.0
2018-Jun-15 13:30N 42°44' W 070°16'4 8.2
2018-Jun-15 13:00N 42°41' W 070°20'4 9.0
2018-Jun-15 12:31N 42°38' W 070°25'611.1
2018-Jun-15 12:00N 42°37' W 070°32'510.7
2018-Jun-15 11:30N 42°35' W 070°39'2 4.7
2018-Jun-15 11:01N 42°37' W 070°39'0 0.9
2018-Jun-15 10:31N 42°37' W 070°39'0 0.6
2018-Jun-15 10:00N 42°37' W 070°40'0 0.0
2018-Jun-15 09:31N 42°37' W 070°40'0 0.0
2018-Jun-15 09:01N 42°37' W 070°40'0 0.0
2018-Jun-15 08:31N 42°37' W 070°40'0 0.0
2018-Jun-15 08:01N 42°37' W 070°40'0 0.0
2018-Jun-15 07:30N 42°37' W 070°40'0 0.0
2018-Jun-15 07:01N 42°37' W 070°40'0 0.0
2018-Jun-15 06:30N 42°37' W 070°40'0 0.0
2018-Jun-15 06:00N 42°37' W 070°40'0 0.0
2018-Jun-15 05:31N 42°37' W 070°40'0 0.0
2018-Jun-15 05:00N 42°37' W 070°40'0 0.0
2018-Jun-15 04:31N 42°37' W 070°40'0 0.0
2018-Jun-15 04:01N 42°37' W 070°40'0 0.0
2018-Jun-15 03:31N 42°37' W 070°40'0 0.0
2018-Jun-15 03:01N 42°37' W 070°40'0 0.0
2018-Jun-15 02:31N 42°37' W 070°40'0 0.0
2018-Jun-15 02:00N 42°37' W 070°40'0 0.0
2018-Jun-15 01:30N 42°37' W 070°40'0 0.0
2018-Jun-15 01:01N 42°37' W 070°40'0 0.0
2018-Jun-15 00:31N 42°37' W 070°40'0 0.0
2018-Jun-15 00:01N 42°37' W 070°40'0 0.0
2018-Jun-14 23:30N 42°37' W 070°40'0 0.0
2018-Jun-14 23:00N 42°37' W 070°40'0 0.0
2018-Jun-14 22:30N 42°37' W 070°40'0 0.0
2018-Jun-14 22:00N 42°37' W 070°40'0 0.0
2018-Jun-14 21:30N 42°37' W 070°40'0 0.0
2018-Jun-14 21:00N 42°37' W 070°40'  

Dump ship's entire track history